sensor_id;sensor_type;location;lat;lon;timestamp;P1;durP1;ratioP1;P2;durP2;ratioP2
20814;SDS011;10568;48.176;16.316;2022-09-12T00:00:17;2.73;;;2.30;;
20814;SDS011;10568;48.176;16.316;2022-09-12T00:02:45;2.53;;;2.20;;
20814;SDS011;10568;48.176;16.316;2022-09-12T00:05:11;2.23;;;1.97;;
20814;SDS011;10568;48.176;16.316;2022-09-12T00:07:37;3.70;;;2.50;;
20814;SDS011;10568;48.176;16.316;2022-09-12T00:10:03;3.20;;;2.30;;
20814;SDS011;10568;48.176;16.316;2022-09-12T00:12:29;2.60;;;2.10;;
20814;SDS011;10568;48.176;16.316;2022-09-12T00:14:55;5.83;;;2.50;;
20814;SDS011;10568;48.176;16.316;2022-09-12T00:17:20;2.67;;;2.30;;
20814;SDS011;10568;48.176;16.316;2022-09-12T00:19:46;2.57;;;2.27;;
20814;SDS011;10568;48.176;16.316;2022-09-12T00:22:12;3.97;;;2.50;;
20814;SDS011;10568;48.176;16.316;2022-09-12T00:27:48;3.17;;;2.07;;
20814;SDS011;10568;48.176;16.316;2022-09-12T00:30:14;2.47;;;2.27;;
20814;SDS011;10568;48.176;16.316;2022-09-12T00:32:40;2.90;;;2.20;;
20814;SDS011;10568;48.176;16.316;2022-09-12T00:35:06;2.50;;;2.20;;
20814;SDS011;10568;48.176;16.316;2022-09-12T00:37:33;2.50;;;2.30;;
20814;SDS011;10568;48.176;16.316;2022-09-12T00:39:59;2.50;;;2.23;;
20814;SDS011;10568;48.176;16.316;2022-09-12T00:42:25;3.53;;;2.50;;
20814;SDS011;10568;48.176;16.316;2022-09-12T00:44:51;3.60;;;2.13;;
20814;SDS011;10568;48.176;16.316;2022-09-12T00:47:20;3.23;;;2.40;;
20814;SDS011;10568;48.176;16.316;2022-09-12T00:52:34;3.83;;;2.60;;
20814;SDS011;10568;48.176;16.316;2022-09-12T00:55:12;3.30;;;2.37;;
20814;SDS011;10568;48.176;16.316;2022-09-12T00:57:53;2.83;;;2.53;;
20814;SDS011;10568;48.176;16.316;2022-09-12T01:00:24;2.80;;;2.60;;
20814;SDS011;10568;48.176;16.316;2022-09-12T01:02:53;3.00;;;2.63;;
20814;SDS011;10568;48.176;16.316;2022-09-12T01:05:33;3.33;;;2.70;;
20814;SDS011;10568;48.176;16.316;2022-09-12T01:08:02;3.53;;;3.00;;
20814;SDS011;10568;48.176;16.316;2022-09-12T01:10:30;3.27;;;2.73;;
20814;SDS011;10568;48.176;16.316;2022-09-12T01:12:58;4.07;;;2.80;;
20814;SDS011;10568;48.176;16.316;2022-09-12T01:15:24;3.63;;;3.20;;
20814;SDS011;10568;48.176;16.316;2022-09-12T01:17:55;3.37;;;2.87;;
20814;SDS011;10568;48.176;16.316;2022-09-12T01:38:46;4.27;;;3.07;;
20814;SDS011;10568;48.176;16.316;2022-09-12T01:41:23;4.87;;;3.40;;
20814;SDS011;10568;48.176;16.316;2022-09-12T01:44:05;4.63;;;3.33;;
20814;SDS011;10568;48.176;16.316;2022-09-12T01:46:57;4.90;;;3.10;;
20814;SDS011;10568;48.176;16.316;2022-09-12T01:49:39;5.00;;;3.40;;
20814;SDS011;10568;48.176;16.316;2022-09-12T01:52:20;3.23;;;2.83;;
20814;SDS011;10568;48.176;16.316;2022-09-12T01:54:57;4.60;;;3.37;;
20814;SDS011;10568;48.176;16.316;2022-09-12T01:57:38;4.50;;;3.87;;
20814;SDS011;10568;48.176;16.316;2022-09-12T02:00:09;3.77;;;3.00;;
20814;SDS011;10568;48.176;16.316;2022-09-12T02:03:10;4.50;;;3.57;;
20814;SDS011;10568;48.176;16.316;2022-09-12T02:05:35;4.20;;;3.40;;
20814;SDS011;10568;48.176;16.316;2022-09-12T02:08:07;3.47;;;3.17;;
20814;SDS011;10568;48.176;16.316;2022-09-12T02:13:33;4.13;;;3.23;;
20814;SDS011;10568;48.176;16.316;2022-09-12T02:16:09;4.13;;;3.60;;
20814;SDS011;10568;48.176;16.316;2022-09-12T02:18:44;3.47;;;3.17;;
20814;SDS011;10568;48.176;16.316;2022-09-12T02:21:14;3.73;;;3.17;;
20814;SDS011;10568;48.176;16.316;2022-09-12T02:23:43;4.37;;;3.37;;
20814;SDS011;10568;48.176;16.316;2022-09-12T02:26:18;3.97;;;3.43;;
20814;SDS011;10568;48.176;16.316;2022-09-12T02:28:48;5.67;;;3.73;;
20814;SDS011;10568;48.176;16.316;2022-09-12T02:31:26;3.93;;;3.40;;
20814;SDS011;10568;48.176;16.316;2022-09-12T02:39:53;4.03;;;3.17;;
20814;SDS011;10568;48.176;16.316;2022-09-12T02:45:43;3.60;;;3.30;;
20814;SDS011;10568;48.176;16.316;2022-09-12T02:48:10;5.07;;;4.10;;
20814;SDS011;10568;48.176;16.316;2022-09-12T02:50:52;5.50;;;3.77;;
20814;SDS011;10568;48.176;16.316;2022-09-12T02:53:18;3.60;;;3.30;;
20814;SDS011;10568;48.176;16.316;2022-09-12T02:55:44;4.27;;;3.73;;
20814;SDS011;10568;48.176;16.316;2022-09-12T02:58:12;5.27;;;3.60;;
20814;SDS011;10568;48.176;16.316;2022-09-12T03:06:25;4.87;;;3.67;;
20814;SDS011;10568;48.176;16.316;2022-09-12T03:20:16;4.43;;;3.43;;
20814;SDS011;10568;48.176;16.316;2022-09-12T03:26:01;4.30;;;3.40;;
20814;SDS011;10568;48.176;16.316;2022-09-12T03:28:42;4.03;;;3.37;;
20814;SDS011;10568;48.176;16.316;2022-09-12T03:31:13;4.23;;;3.63;;
20814;SDS011;10568;48.176;16.316;2022-09-12T03:33:40;5.07;;;3.70;;
20814;SDS011;10568;48.176;16.316;2022-09-12T03:36:10;4.53;;;3.47;;
20814;SDS011;10568;48.176;16.316;2022-09-12T03:38:44;4.57;;;3.53;;
20814;SDS011;10568;48.176;16.316;2022-09-12T03:41:10;4.50;;;3.73;;
20814;SDS011;10568;48.176;16.316;2022-09-12T03:43:36;5.33;;;4.20;;
20814;SDS011;10568;48.176;16.316;2022-09-12T03:46:01;5.97;;;3.97;;
20814;SDS011;10568;48.176;16.316;2022-09-12T03:48:37;4.90;;;3.77;;
20814;SDS011;10568;48.176;16.316;2022-09-12T03:51:05;4.57;;;3.87;;
20814;SDS011;10568;48.176;16.316;2022-09-12T03:53:32;4.53;;;3.57;;
20814;SDS011;10568;48.176;16.316;2022-09-12T03:55:58;3.97;;;3.57;;
20814;SDS011;10568;48.176;16.316;2022-09-12T03:58:28;5.17;;;4.13;;
20814;SDS011;10568;48.176;16.316;2022-09-12T04:00:55;6.27;;;4.13;;
20814;SDS011;10568;48.176;16.316;2022-09-12T04:03:21;5.17;;;3.57;;
20814;SDS011;10568;48.176;16.316;2022-09-12T04:05:46;5.10;;;3.87;;
20814;SDS011;10568;48.176;16.316;2022-09-12T04:08:13;4.57;;;3.70;;
20814;SDS011;10568;48.176;16.316;2022-09-12T04:10:39;4.90;;;3.77;;
20814;SDS011;10568;48.176;16.316;2022-09-12T04:13:05;4.87;;;3.50;;
20814;SDS011;10568;48.176;16.316;2022-09-12T04:15:31;6.07;;;3.70;;
20814;SDS011;10568;48.176;16.316;2022-09-12T04:17:57;3.97;;;3.40;;
20814;SDS011;10568;48.176;16.316;2022-09-12T04:20:23;6.70;;;4.27;;
20814;SDS011;10568;48.176;16.316;2022-09-12T04:22:49;5.73;;;3.70;;
20814;SDS011;10568;48.176;16.316;2022-09-12T04:25:15;4.77;;;4.03;;
20814;SDS011;10568;48.176;16.316;2022-09-12T04:27:41;4.83;;;3.87;;
20814;SDS011;10568;48.176;16.316;2022-09-12T04:30:07;3.80;;;3.20;;
20814;SDS011;10568;48.176;16.316;2022-09-12T04:32:34;6.23;;;4.20;;
20814;SDS011;10568;48.176;16.316;2022-09-12T04:35:00;4.47;;;3.83;;
20814;SDS011;10568;48.176;16.316;2022-09-12T04:37:26;4.83;;;4.10;;
20814;SDS011;10568;48.176;16.316;2022-09-12T04:39:52;4.97;;;3.63;;
20814;SDS011;10568;48.176;16.316;2022-09-12T04:42:22;4.37;;;3.20;;
20814;SDS011;10568;48.176;16.316;2022-09-12T04:44:48;6.83;;;4.10;;
20814;SDS011;10568;48.176;16.316;2022-09-12T04:47:13;6.07;;;4.20;;
20814;SDS011;10568;48.176;16.316;2022-09-12T04:49:41;5.20;;;4.00;;
20814;SDS011;10568;48.176;16.316;2022-09-12T04:52:06;6.70;;;3.70;;
20814;SDS011;10568;48.176;16.316;2022-09-12T04:54:33;6.40;;;3.63;;
20814;SDS011;10568;48.176;16.316;2022-09-12T04:56:59;4.37;;;3.30;;
20814;SDS011;10568;48.176;16.316;2022-09-12T04:59:24;5.20;;;3.50;;
20814;SDS011;10568;48.176;16.316;2022-09-12T05:01:50;4.83;;;3.70;;
20814;SDS011;10568;48.176;16.316;2022-09-12T05:04:17;5.03;;;3.40;;
20814;SDS011;10568;48.176;16.316;2022-09-12T05:06:43;5.57;;;3.50;;
20814;SDS011;10568;48.176;16.316;2022-09-12T05:09:11;6.53;;;4.10;;
20814;SDS011;10568;48.176;16.316;2022-09-12T05:11:39;4.27;;;3.10;;
20814;SDS011;10568;48.176;16.316;2022-09-12T05:14:07;6.57;;;3.90;;
20814;SDS011;10568;48.176;16.316;2022-09-12T05:16:34;6.77;;;3.50;;
20814;SDS011;10568;48.176;16.316;2022-09-12T05:19:00;5.57;;;3.70;;
20814;SDS011;10568;48.176;16.316;2022-09-12T05:21:26;4.60;;;3.40;;
20814;SDS011;10568;48.176;16.316;2022-09-12T05:23:52;4.47;;;3.43;;
20814;SDS011;10568;48.176;16.316;2022-09-12T05:26:20;4.23;;;3.33;;
20814;SDS011;10568;48.176;16.316;2022-09-12T05:28:47;4.47;;;3.40;;
20814;SDS011;10568;48.176;16.316;2022-09-12T05:31:18;4.83;;;3.33;;
20814;SDS011;10568;48.176;16.316;2022-09-12T05:33:46;3.67;;;2.93;;
20814;SDS011;10568;48.176;16.316;2022-09-12T05:36:20;3.50;;;2.70;;
20814;SDS011;10568;48.176;16.316;2022-09-12T05:38:51;4.53;;;3.73;;
20814;SDS011;10568;48.176;16.316;2022-09-12T05:41:22;4.60;;;3.27;;
20814;SDS011;10568;48.176;16.316;2022-09-12T05:43:51;6.13;;;3.43;;
20814;SDS011;10568;48.176;16.316;2022-09-12T05:46:18;3.90;;;3.13;;
20814;SDS011;10568;48.176;16.316;2022-09-12T05:48:46;5.00;;;3.30;;
20814;SDS011;10568;48.176;16.316;2022-09-12T05:51:17;4.60;;;3.07;;
20814;SDS011;10568;48.176;16.316;2022-09-12T05:53:46;4.87;;;3.27;;
20814;SDS011;10568;48.176;16.316;2022-09-12T05:56:15;5.07;;;3.40;;
20814;SDS011;10568;48.176;16.316;2022-09-12T05:58:44;5.03;;;3.20;;
20814;SDS011;10568;48.176;16.316;2022-09-12T06:01:13;3.73;;;3.07;;
20814;SDS011;10568;48.176;16.316;2022-09-12T06:03:41;4.90;;;3.17;;
20814;SDS011;10568;48.176;16.316;2022-09-12T06:06:08;3.40;;;2.80;;
20814;SDS011;10568;48.176;16.316;2022-09-12T06:08:39;3.73;;;2.77;;
20814;SDS011;10568;48.176;16.316;2022-09-12T06:11:12;3.67;;;2.93;;
20814;SDS011;10568;48.176;16.316;2022-09-12T06:13:40;4.97;;;2.70;;
20814;SDS011;10568;48.176;16.316;2022-09-12T06:16:08;3.17;;;2.60;;
20814;SDS011;10568;48.176;16.316;2022-09-12T06:18:52;4.00;;;2.80;;
20814;SDS011;10568;48.176;16.316;2022-09-12T06:21:20;4.13;;;3.20;;
20814;SDS011;10568;48.176;16.316;2022-09-12T06:23:47;3.00;;;2.70;;
20814;SDS011;10568;48.176;16.316;2022-09-12T06:26:14;3.30;;;2.37;;
20814;SDS011;10568;48.176;16.316;2022-09-12T06:28:42;3.40;;;2.63;;
20814;SDS011;10568;48.176;16.316;2022-09-12T06:34:31;4.93;;;2.93;;
20814;SDS011;10568;48.176;16.316;2022-09-12T06:36:57;3.07;;;2.50;;
20814;SDS011;10568;48.176;16.316;2022-09-12T06:39:23;3.07;;;2.70;;
20814;SDS011;10568;48.176;16.316;2022-09-12T06:41:49;4.37;;;3.00;;
20814;SDS011;10568;48.176;16.316;2022-09-12T06:44:18;3.20;;;2.77;;
20814;SDS011;10568;48.176;16.316;2022-09-12T06:46:45;3.40;;;2.73;;
20814;SDS011;10568;48.176;16.316;2022-09-12T06:49:13;4.30;;;2.73;;
20814;SDS011;10568;48.176;16.316;2022-09-12T06:51:39;3.40;;;2.57;;
20814;SDS011;10568;48.176;16.316;2022-09-12T06:54:06;4.80;;;3.17;;
20814;SDS011;10568;48.176;16.316;2022-09-12T06:56:33;3.67;;;2.60;;
20814;SDS011;10568;48.176;16.316;2022-09-12T06:58:59;5.07;;;2.57;;
20814;SDS011;10568;48.176;16.316;2022-09-12T07:01:26;5.23;;;2.80;;
20814;SDS011;10568;48.176;16.316;2022-09-12T07:03:54;3.87;;;3.20;;
20814;SDS011;10568;48.176;16.316;2022-09-12T07:06:26;3.60;;;2.97;;
20814;SDS011;10568;48.176;16.316;2022-09-12T07:08:57;5.20;;;2.60;;
20814;SDS011;10568;48.176;16.316;2022-09-12T07:11:24;3.73;;;2.70;;
20814;SDS011;10568;48.176;16.316;2022-09-12T07:13:53;2.87;;;2.37;;
20814;SDS011;10568;48.176;16.316;2022-09-12T07:16:20;3.80;;;2.83;;
20814;SDS011;10568;48.176;16.316;2022-09-12T07:18:50;3.43;;;2.57;;
20814;SDS011;10568;48.176;16.316;2022-09-12T07:24:23;3.37;;;2.40;;
20814;SDS011;10568;48.176;16.316;2022-09-12T07:26:49;3.87;;;2.73;;
20814;SDS011;10568;48.176;16.316;2022-09-12T07:29:15;3.97;;;2.80;;
20814;SDS011;10568;48.176;16.316;2022-09-12T07:31:41;3.63;;;2.97;;
20814;SDS011;10568;48.176;16.316;2022-09-12T07:34:07;3.57;;;2.67;;
20814;SDS011;10568;48.176;16.316;2022-09-12T07:36:34;4.10;;;2.80;;
20814;SDS011;10568;48.176;16.316;2022-09-12T07:39:00;2.83;;;2.23;;
20814;SDS011;10568;48.176;16.316;2022-09-12T07:41:27;4.50;;;2.53;;
20814;SDS011;10568;48.176;16.316;2022-09-12T07:43:55;3.80;;;2.40;;
20814;SDS011;10568;48.176;16.316;2022-09-12T07:46:23;3.10;;;2.57;;
20814;SDS011;10568;48.176;16.316;2022-09-12T07:48:51;4.10;;;2.80;;
20814;SDS011;10568;48.176;16.316;2022-09-12T07:51:18;4.73;;;2.93;;
20814;SDS011;10568;48.176;16.316;2022-09-12T07:53:44;3.73;;;2.57;;
20814;SDS011;10568;48.176;16.316;2022-09-12T07:56:26;3.80;;;2.70;;
20814;SDS011;10568;48.176;16.316;2022-09-12T07:58:53;4.40;;;3.20;;
20814;SDS011;10568;48.176;16.316;2022-09-12T08:01:20;3.73;;;3.00;;
20814;SDS011;10568;48.176;16.316;2022-09-12T08:03:52;4.03;;;2.97;;
20814;SDS011;10568;48.176;16.316;2022-09-12T08:06:21;4.17;;;3.03;;
20814;SDS011;10568;48.176;16.316;2022-09-12T08:08:49;3.20;;;2.50;;
20814;SDS011;10568;48.176;16.316;2022-09-12T08:11:17;3.40;;;2.70;;
20814;SDS011;10568;48.176;16.316;2022-09-12T08:13:45;3.40;;;2.70;;
20814;SDS011;10568;48.176;16.316;2022-09-12T08:16:11;3.17;;;2.40;;
20814;SDS011;10568;48.176;16.316;2022-09-12T08:18:42;3.97;;;2.60;;
20814;SDS011;10568;48.176;16.316;2022-09-12T08:21:10;2.73;;;2.40;;
20814;SDS011;10568;48.176;16.316;2022-09-12T08:23:41;3.30;;;2.67;;
20814;SDS011;10568;48.176;16.316;2022-09-12T08:26:08;5.87;;;2.80;;
20814;SDS011;10568;48.176;16.316;2022-09-12T08:28:35;2.90;;;2.30;;
20814;SDS011;10568;48.176;16.316;2022-09-12T08:31:02;2.80;;;2.50;;
20814;SDS011;10568;48.176;16.316;2022-09-12T08:33:30;5.20;;;2.60;;
20814;SDS011;10568;48.176;16.316;2022-09-12T08:36:08;5.30;;;2.90;;
20814;SDS011;10568;48.176;16.316;2022-09-12T08:38:36;3.00;;;2.43;;
20814;SDS011;10568;48.176;16.316;2022-09-12T08:41:06;2.87;;;2.20;;
20814;SDS011;10568;48.176;16.316;2022-09-12T08:46:14;3.90;;;2.07;;
20814;SDS011;10568;48.176;16.316;2022-09-12T08:48:47;3.03;;;2.13;;
20814;SDS011;10568;48.176;16.316;2022-09-12T08:51:13;5.80;;;2.60;;
20814;SDS011;10568;48.176;16.316;2022-09-12T08:53:42;3.30;;;2.50;;
20814;SDS011;10568;48.176;16.316;2022-09-12T08:56:11;4.77;;;2.80;;
20814;SDS011;10568;48.176;16.316;2022-09-12T08:58:43;3.40;;;2.80;;
20814;SDS011;10568;48.176;16.316;2022-09-12T09:01:17;3.73;;;2.97;;
20814;SDS011;10568;48.176;16.316;2022-09-12T09:04:02;3.53;;;2.57;;
20814;SDS011;10568;48.176;16.316;2022-09-12T09:09:07;3.03;;;2.27;;
20814;SDS011;10568;48.176;16.316;2022-09-12T09:17:14;4.50;;;2.60;;
20814;SDS011;10568;48.176;16.316;2022-09-12T09:19:52;2.77;;;2.10;;
20814;SDS011;10568;48.176;16.316;2022-09-12T09:22:42;2.70;;;2.10;;
20814;SDS011;10568;48.176;16.316;2022-09-12T09:25:10;2.72;;;2.20;;
20814;SDS011;10568;48.176;16.316;2022-09-12T09:27:52;2.20;;;1.88;;
20814;SDS011;10568;48.176;16.316;2022-09-12T09:30:23;4.32;;;1.92;;
20814;SDS011;10568;48.176;16.316;2022-09-12T09:32:50;2.92;;;2.30;;
20814;SDS011;10568;48.176;16.316;2022-09-12T09:35:36;2.30;;;1.85;;
20814;SDS011;10568;48.176;16.316;2022-09-12T09:38:21;2.92;;;2.00;;
20814;SDS011;10568;48.176;16.316;2022-09-12T09:43:42;3.75;;;2.10;;
20814;SDS011;10568;48.176;16.316;2022-09-12T09:46:09;2.92;;;2.20;;
20814;SDS011;10568;48.176;16.316;2022-09-12T09:48:36;3.72;;;1.95;;
20814;SDS011;10568;48.176;16.316;2022-09-12T09:51:06;3.08;;;2.20;;
20814;SDS011;10568;48.176;16.316;2022-09-12T09:56:36;2.20;;;2.00;;
20814;SDS011;10568;48.176;16.316;2022-09-12T09:59:20;4.43;;;2.35;;
20814;SDS011;10568;48.176;16.316;2022-09-12T10:01:58;1.77;;;1.52;;
20814;SDS011;10568;48.176;16.316;2022-09-12T10:04:31;3.20;;;2.10;;
20814;SDS011;10568;48.176;16.316;2022-09-12T10:07:01;3.20;;;1.98;;
20814;SDS011;10568;48.176;16.316;2022-09-12T10:11:57;5.25;;;2.20;;
20814;SDS011;10568;48.176;16.316;2022-09-12T10:14:29;3.25;;;2.25;;
20814;SDS011;10568;48.176;16.316;2022-09-12T10:16:59;2.45;;;2.25;;
20814;SDS011;10568;48.176;16.316;2022-09-12T10:19:37;2.22;;;1.92;;
20814;SDS011;10568;48.176;16.316;2022-09-12T10:22:06;2.70;;;1.70;;
20814;SDS011;10568;48.176;16.316;2022-09-12T10:24:46;1.98;;;1.75;;
20814;SDS011;10568;48.176;16.316;2022-09-12T10:27:15;2.13;;;1.90;;
20814;SDS011;10568;48.176;16.316;2022-09-12T10:32:29;4.00;;;1.98;;
20814;SDS011;10568;48.176;16.316;2022-09-12T10:35:06;1.92;;;1.70;;
20814;SDS011;10568;48.176;16.316;2022-09-12T10:37:49;1.95;;;1.70;;
20814;SDS011;10568;48.176;16.316;2022-09-12T10:40:27;3.20;;;2.10;;
20814;SDS011;10568;48.176;16.316;2022-09-12T10:42:57;3.22;;;2.22;;
20814;SDS011;10568;48.176;16.316;2022-09-12T10:45:38;2.70;;;1.85;;
20814;SDS011;10568;48.176;16.316;2022-09-12T10:50:54;2.38;;;2.08;;
20814;SDS011;10568;48.176;16.316;2022-09-12T10:53:24;3.15;;;2.10;;
20814;SDS011;10568;48.176;16.316;2022-09-12T10:56:09;2.05;;;1.60;;
20814;SDS011;10568;48.176;16.316;2022-09-12T10:58:48;2.08;;;1.88;;
20814;SDS011;10568;48.176;16.316;2022-09-12T11:01:40;2.78;;;1.90;;
20814;SDS011;10568;48.176;16.316;2022-09-12T11:07:13;2.22;;;1.85;;
20814;SDS011;10568;48.176;16.316;2022-09-12T11:10:27;1.85;;;1.73;;
20814;SDS011;10568;48.176;16.316;2022-09-12T11:35:28;2.10;;;1.90;;
20814;SDS011;10568;48.176;16.316;2022-09-12T11:49:03;2.00;;;1.50;;
20814;SDS011;10568;48.176;16.316;2022-09-12T11:54:47;2.83;;;1.38;;
20814;SDS011;10568;48.176;16.316;2022-09-12T12:00:16;2.30;;;1.85;;
20814;SDS011;10568;48.176;16.316;2022-09-12T12:05:40;1.75;;;1.38;;
20814;SDS011;10568;48.176;16.316;2022-09-12T12:08:18;2.08;;;1.63;;
20814;SDS011;10568;48.176;16.316;2022-09-12T12:10:49;2.63;;;1.80;;
20814;SDS011;10568;48.176;16.316;2022-09-12T12:15:46;2.17;;;1.70;;
20814;SDS011;10568;48.176;16.316;2022-09-12T12:20:46;1.65;;;1.50;;
20814;SDS011;10568;48.176;16.316;2022-09-12T12:23:33;6.75;;;1.88;;
20814;SDS011;10568;48.176;16.316;2022-09-12T12:26:00;1.75;;;1.45;;
20814;SDS011;10568;48.176;16.316;2022-09-12T12:31:05;1.80;;;1.58;;
20814;SDS011;10568;48.176;16.316;2022-09-12T12:41:56;2.97;;;1.75;;
20814;SDS011;10568;48.176;16.316;2022-09-12T12:47:12;2.63;;;1.40;;
20814;SDS011;10568;48.176;16.316;2022-09-12T12:52:24;1.70;;;1.60;;
20814;SDS011;10568;48.176;16.316;2022-09-12T12:55:02;1.90;;;1.52;;
20814;SDS011;10568;48.176;16.316;2022-09-12T13:00:05;2.45;;;1.60;;
20814;SDS011;10568;48.176;16.316;2022-09-12T13:05:22;1.60;;;1.20;;
20814;SDS011;10568;48.176;16.316;2022-09-12T13:07:54;1.63;;;1.20;;
20814;SDS011;10568;48.176;16.316;2022-09-12T13:10:30;1.77;;;1.67;;
20814;SDS011;10568;48.176;16.316;2022-09-12T13:12:57;2.47;;;1.35;;
20814;SDS011;10568;48.176;16.316;2022-09-12T13:18:06;1.95;;;1.73;;
20814;SDS011;10568;48.176;16.316;2022-09-12T13:20:37;1.40;;;1.30;;
20814;SDS011;10568;48.176;16.316;2022-09-12T13:23:45;2.55;;;1.48;;
20814;SDS011;10568;48.176;16.316;2022-09-12T13:26:09;2.03;;;1.55;;
20814;SDS011;10568;48.176;16.316;2022-09-12T13:28:38;1.92;;;1.33;;
20814;SDS011;10568;48.176;16.316;2022-09-12T13:31:11;2.10;;;1.67;;
20814;SDS011;10568;48.176;16.316;2022-09-12T13:33:51;2.75;;;1.67;;
20814;SDS011;10568;48.176;16.316;2022-09-12T13:36:27;2.13;;;1.70;;
20814;SDS011;10568;48.176;16.316;2022-09-12T13:39:14;1.75;;;1.63;;
20814;SDS011;10568;48.176;16.316;2022-09-12T13:44:13;1.85;;;1.33;;
20814;SDS011;10568;48.176;16.316;2022-09-12T13:46:43;1.40;;;1.30;;
20814;SDS011;10568;48.176;16.316;2022-09-12T13:52:06;1.77;;;1.30;;
20814;SDS011;10568;48.176;16.316;2022-09-12T13:54:38;3.10;;;1.40;;
20814;SDS011;10568;48.176;16.316;2022-09-12T13:57:04;1.75;;;1.40;;
20814;SDS011;10568;48.176;16.316;2022-09-12T13:59:40;2.05;;;1.38;;
20814;SDS011;10568;48.176;16.316;2022-09-12T14:02:20;2.03;;;1.52;;
20814;SDS011;10568;48.176;16.316;2022-09-12T14:04:47;1.33;;;1.20;;
20814;SDS011;10568;48.176;16.316;2022-09-12T14:07:36;2.50;;;1.50;;
20814;SDS011;10568;48.176;16.316;2022-09-12T14:10:20;1.85;;;1.30;;
20814;SDS011;10568;48.176;16.316;2022-09-12T14:12:50;1.95;;;1.38;;
20814;SDS011;10568;48.176;16.316;2022-09-12T14:15:20;2.08;;;1.40;;
20814;SDS011;10568;48.176;16.316;2022-09-12T14:17:53;3.25;;;1.60;;
20814;SDS011;10568;48.176;16.316;2022-09-12T14:20:25;1.63;;;1.48;;
20814;SDS011;10568;48.176;16.316;2022-09-12T14:22:58;2.70;;;1.80;;
20814;SDS011;10568;48.176;16.316;2022-09-12T14:25:37;2.33;;;1.90;;
20814;SDS011;10568;48.176;16.316;2022-09-12T14:28:05;2.70;;;1.90;;
20814;SDS011;10568;48.176;16.316;2022-09-12T14:30:35;2.55;;;1.60;;
20814;SDS011;10568;48.176;16.316;2022-09-12T14:35:36;1.30;;;1.20;;
20814;SDS011;10568;48.176;16.316;2022-09-12T14:38:12;2.20;;;1.50;;
20814;SDS011;10568;48.176;16.316;2022-09-12T14:40:47;1.30;;;1.10;;
20814;SDS011;10568;48.176;16.316;2022-09-12T14:43:28;2.05;;;1.85;;
20814;SDS011;10568;48.176;16.316;2022-09-12T14:46:14;1.77;;;1.40;;
20814;SDS011;10568;48.176;16.316;2022-09-12T14:48:47;2.22;;;1.17;;
20814;SDS011;10568;48.176;16.316;2022-09-12T14:51:20;1.50;;;1.20;;
20814;SDS011;10568;48.176;16.316;2022-09-12T14:53:52;1.50;;;1.40;;
20814;SDS011;10568;48.176;16.316;2022-09-12T14:56:21;2.65;;;1.40;;
20814;SDS011;10568;48.176;16.316;2022-09-12T15:04:50;1.73;;;1.20;;
20814;SDS011;10568;48.176;16.316;2022-09-12T15:09:58;1.65;;;1.35;;
20814;SDS011;10568;48.176;16.316;2022-09-12T15:12:27;1.60;;;1.30;;
20814;SDS011;10568;48.176;16.316;2022-09-12T15:14:56;1.50;;;1.40;;
20814;SDS011;10568;48.176;16.316;2022-09-12T15:17:25;2.03;;;1.40;;
20814;SDS011;10568;48.176;16.316;2022-09-12T15:19:50;1.48;;;1.20;;
20814;SDS011;10568;48.176;16.316;2022-09-12T15:22:16;1.33;;;1.20;;
20814;SDS011;10568;48.176;16.316;2022-09-12T15:24:43;1.38;;;1.15;;
20814;SDS011;10568;48.176;16.316;2022-09-12T15:27:12;1.83;;;1.42;;
20814;SDS011;10568;48.176;16.316;2022-09-12T15:29:38;3.58;;;1.60;;
20814;SDS011;10568;48.176;16.316;2022-09-12T15:32:04;1.48;;;1.10;;
20814;SDS011;10568;48.176;16.316;2022-09-12T15:34:31;1.10;;;1.00;;
20814;SDS011;10568;48.176;16.316;2022-09-12T15:36:57;1.73;;;1.50;;
20814;SDS011;10568;48.176;16.316;2022-09-12T15:39:23;1.40;;;1.30;;
20814;SDS011;10568;48.176;16.316;2022-09-12T15:41:48;1.60;;;1.20;;
20814;SDS011;10568;48.176;16.316;2022-09-12T15:44:14;1.73;;;0.95;;
20814;SDS011;10568;48.176;16.316;2022-09-12T15:46:40;1.50;;;1.20;;
20814;SDS011;10568;48.176;16.316;2022-09-12T15:49:06;1.40;;;1.30;;
20814;SDS011;10568;48.176;16.316;2022-09-12T15:51:32;1.75;;;1.20;;
20814;SDS011;10568;48.176;16.316;2022-09-12T15:53:58;2.13;;;1.30;;
20814;SDS011;10568;48.176;16.316;2022-09-12T15:56:26;1.50;;;1.20;;
20814;SDS011;10568;48.176;16.316;2022-09-12T15:58:52;1.20;;;1.10;;
20814;SDS011;10568;48.176;16.316;2022-09-12T16:01:18;1.88;;;1.27;;
20814;SDS011;10568;48.176;16.316;2022-09-12T16:03:47;1.50;;;1.23;;
20814;SDS011;10568;48.176;16.316;2022-09-12T16:06:13;1.63;;;1.35;;
20814;SDS011;10568;48.176;16.316;2022-09-12T16:08:39;1.48;;;1.30;;
20814;SDS011;10568;48.176;16.316;2022-09-12T16:11:24;1.40;;;1.10;;
20814;SDS011;10568;48.176;16.316;2022-09-12T16:13:51;2.33;;;1.30;;
20814;SDS011;10568;48.176;16.316;2022-09-12T16:16:17;1.83;;;1.20;;
20814;SDS011;10568;48.176;16.316;2022-09-12T16:18:43;1.60;;;1.30;;
20814;SDS011;10568;48.176;16.316;2022-09-12T16:21:09;2.42;;;1.10;;
20814;SDS011;10568;48.176;16.316;2022-09-12T16:23:35;1.42;;;1.30;;
20814;SDS011;10568;48.176;16.316;2022-09-12T16:26:04;1.17;;;1.07;;
20814;SDS011;10568;48.176;16.316;2022-09-12T16:28:30;1.45;;;1.23;;
20814;SDS011;10568;48.176;16.316;2022-09-12T16:30:58;1.30;;;1.10;;
20814;SDS011;10568;48.176;16.316;2022-09-12T16:33:26;1.20;;;1.10;;
20814;SDS011;10568;48.176;16.316;2022-09-12T16:35:52;2.03;;;1.40;;
20814;SDS011;10568;48.176;16.316;2022-09-12T16:38:27;2.55;;;1.75;;
20814;SDS011;10568;48.176;16.316;2022-09-12T16:40:58;1.40;;;1.25;;
20814;SDS011;10568;48.176;16.316;2022-09-12T16:43:28;1.40;;;1.30;;
20814;SDS011;10568;48.176;16.316;2022-09-12T16:46:06;1.85;;;1.40;;
20814;SDS011;10568;48.176;16.316;2022-09-12T16:48:46;1.70;;;1.45;;
20814;SDS011;10568;48.176;16.316;2022-09-12T16:51:14;2.33;;;1.40;;
20814;SDS011;10568;48.176;16.316;2022-09-12T16:53:41;2.53;;;1.50;;
20814;SDS011;10568;48.176;16.316;2022-09-12T16:56:07;1.97;;;1.60;;
20814;SDS011;10568;48.176;16.316;2022-09-12T16:58:35;1.63;;;1.50;;
20814;SDS011;10568;48.176;16.316;2022-09-12T17:01:03;2.08;;;1.52;;
20814;SDS011;10568;48.176;16.316;2022-09-12T17:03:31;2.07;;;1.60;;
20814;SDS011;10568;48.176;16.316;2022-09-12T17:06:02;2.23;;;1.70;;
20814;SDS011;10568;48.176;16.316;2022-09-12T17:08:32;2.83;;;2.10;;
20814;SDS011;10568;48.176;16.316;2022-09-12T17:11:03;2.70;;;1.80;;
20814;SDS011;10568;48.176;16.316;2022-09-12T17:13:31;3.20;;;1.83;;
20814;SDS011;10568;48.176;16.316;2022-09-12T17:16:10;3.23;;;1.70;;
20814;SDS011;10568;48.176;16.316;2022-09-12T17:18:36;2.40;;;1.87;;
20814;SDS011;10568;48.176;16.316;2022-09-12T17:21:04;2.63;;;2.20;;
20814;SDS011;10568;48.176;16.316;2022-09-12T17:23:31;3.20;;;1.83;;
20814;SDS011;10568;48.176;16.316;2022-09-12T17:25:58;2.10;;;1.77;;
20814;SDS011;10568;48.176;16.316;2022-09-12T17:28:24;2.13;;;1.90;;
20814;SDS011;10568;48.176;16.316;2022-09-12T17:30:59;1.87;;;1.67;;
20814;SDS011;10568;48.176;16.316;2022-09-12T17:33:27;3.57;;;1.97;;
20814;SDS011;10568;48.176;16.316;2022-09-12T17:35:54;2.43;;;2.10;;
20814;SDS011;10568;48.176;16.316;2022-09-12T17:38:32;3.17;;;1.90;;
20814;SDS011;10568;48.176;16.316;2022-09-12T17:43:39;1.83;;;1.70;;
20814;SDS011;10568;48.176;16.316;2022-09-12T17:46:05;1.60;;;1.50;;
20814;SDS011;10568;48.176;16.316;2022-09-12T17:48:32;2.00;;;1.50;;
20814;SDS011;10568;48.176;16.316;2022-09-12T17:50:58;1.87;;;1.50;;
20814;SDS011;10568;48.176;16.316;2022-09-12T17:53:31;2.17;;;1.53;;